createdAt,value
2018-02-21T00:02:18.734Z,98242.95
2018-02-21T00:04:46.513Z,98254.44
2018-02-21T00:07:14.527Z,98255.38
2018-02-21T00:09:41.995Z,98255.64
2018-02-21T00:12:09.449Z,98260.72
2018-02-21T00:14:37.214Z,98260.56
2018-02-21T00:17:04.676Z,98263.31
2018-02-21T00:19:32.140Z,98263.03
2018-02-21T00:21:59.897Z,98261.81
2018-02-21T00:24:27.351Z,98264.77
2018-02-21T00:26:54.820Z,98263.90
2018-02-21T00:29:22.885Z,98256.05
2018-02-21T00:31:50.333Z,98265.28
2018-02-21T00:34:17.794Z,98266.41
2018-02-21T00:36:45.530Z,98263.05
2018-02-21T00:39:13.026Z,98263.13
2018-02-21T00:41:40.451Z,98263.63
2018-02-21T00:44:08.882Z,98264.83
2018-02-21T00:46:36.338Z,98268.33
2018-02-21T00:49:03.816Z,98259.23
2018-02-21T00:51:31.776Z,98258.12
2018-02-21T00:54:00.023Z,98260.27
2018-02-21T00:56:27.491Z,98251.92
2018-02-21T00:58:55.482Z,98261.94
2018-02-21T01:01:22.945Z,98264.59
2018-02-21T01:03:50.405Z,98270.77
2018-02-21T01:06:18.165Z,98260.68
2018-02-21T01:08:45.625Z,98272.73
2018-02-21T01:11:13.075Z,98266.05
2018-02-21T01:13:40.761Z,98268.38
2018-02-21T01:16:08.218Z,98265.27
2018-02-21T01:18:35.677Z,98272.18
2018-02-21T01:21:03.546Z,98269.95
2018-02-21T01:23:31.018Z,98273.06
2018-02-21T01:25:58.473Z,98273.58
2018-02-21T01:28:26.242Z,98264.77
2018-02-21T01:30:53.702Z,98269.24
2018-02-21T01:33:21.162Z,98270.99
2018-02-21T01:35:48.924Z,98267.53
2018-02-21T01:38:16.369Z,98270.46
2018-02-21T01:40:43.829Z,98272.59
2018-02-21T01:43:11.602Z,98276.05
2018-02-21T01:45:39.089Z,98273.80
2018-02-21T01:48:06.541Z,98274.94
2018-02-21T01:53:32.003Z,98269.05
2018-02-21T01:55:59.925Z,98268.53
2018-02-21T01:58:27.378Z,98274.80
2018-02-21T02:00:54.834Z,98271.33
2018-02-21T02:03:22.615Z,98269.36
2018-02-21T02:05:50.071Z,98268.56
2018-02-21T02:08:17.532Z,98269.36
2018-02-21T02:10:45.614Z,98266.30
2018-02-21T02:15:45.953Z,98275.16
2018-02-21T02:18:13.838Z,98275.60
2018-02-21T02:20:41.337Z,98274.27
2018-02-21T02:23:08.798Z,98275.02
2018-02-21T02:25:36.522Z,98272.38
2018-02-21T02:28:03.989Z,98276.58
2018-02-21T02:30:31.445Z,98275.80
2018-02-21T02:32:59.247Z,98281.46
2018-02-21T02:35:26.711Z,98287.95
2018-02-21T02:37:54.171Z,98279.94
2018-02-21T02:40:21.880Z,98280.29
2018-02-21T02:42:49.327Z,98281.33
2018-02-21T02:45:16.783Z,98281.57
2018-02-21T02:47:44.445Z,98274.31
2018-02-21T02:50:11.919Z,98266.72
2018-02-21T02:52:39.388Z,98279.84
2018-02-21T02:55:07.257Z,98280.25
2018-02-21T02:57:35.091Z,98284.74
2018-02-21T03:00:02.832Z,98281.08
2018-02-21T03:02:30.572Z,98282.86
2018-02-21T03:04:58.076Z,98285.98
2018-02-21T03:07:25.540Z,98289.34
2018-02-21T03:09:53.552Z,98292.62
2018-02-21T03:12:21.018Z,98287.81
2018-02-21T03:14:48.479Z,98288.13
2018-02-21T03:17:16.249Z,98292.30
2018-02-21T03:19:44.282Z,98286.57
2018-02-21T03:22:11.758Z,98284.10
2018-02-21T03:27:12.244Z,98291.24
2018-02-21T03:36:23.675Z,98296.14
2018-02-21T03:38:51.173Z,98303.22
2018-02-21T03:41:18.626Z,98301.42
2018-02-21T03:46:18.963Z,98300.65
2018-02-21T03:48:46.419Z,98303.89
2018-02-21T03:51:14.267Z,98312.94
2018-02-21T03:53:41.726Z,98315.91
2018-02-21T03:56:09.187Z,98315.61
2018-02-21T03:58:39.410Z,98306.59
2018-02-21T04:01:06.885Z,98314.20
2018-02-21T04:03:34.337Z,98315.55
2018-02-21T04:06:02.090Z,98313.11
2018-02-21T04:08:29.553Z,98311.09
2018-02-21T04:10:57.016Z,98311.17
2018-02-21T04:13:24.835Z,98303.83
2018-02-21T04:15:52.286Z,98310.10
2018-02-21T04:18:19.744Z,98302.41
2018-02-21T04:20:47.477Z,98306.91
2018-02-21T04:23:14.946Z,98307.08
2018-02-21T04:25:42.411Z,98310.11
2018-02-21T04:28:10.156Z,98313.69
2018-02-21T04:30:37.637Z,98306.77
2018-02-21T04:33:05.097Z,98314.78
2018-02-21T04:35:32.844Z,98314.12
2018-02-21T04:38:00.316Z,98320.09
2018-02-21T04:40:27.816Z,98319.44
2018-02-21T04:42:55.530Z,98323.78
2018-02-21T04:45:22.982Z,98318.58
2018-02-21T04:47:50.443Z,98324.34
2018-02-21T04:50:18.205Z,98336.86
2018-02-21T04:52:45.657Z,98337.48
2018-02-21T04:58:30.646Z,98346.91
2018-02-21T05:00:59.055Z,98344.63
2018-02-21T05:03:26.525Z,98350.82
2018-02-21T05:05:53.981Z,98341.00
2018-02-21T05:08:21.729Z,98347.66
2018-02-21T05:10:49.203Z,98349.30
2018-02-21T05:13:16.656Z,98348.70
2018-02-21T05:15:44.530Z,98349.95
2018-02-21T05:18:12.009Z,98350.62
2018-02-21T05:20:39.489Z,98349.91
2018-02-21T05:23:07.175Z,98354.55
2018-02-21T05:25:34.636Z,98346.61
2018-02-21T05:28:02.092Z,98353.61
2018-02-21T05:30:30.108Z,98358.31
2018-02-21T05:32:57.580Z,98354.74
2018-02-21T05:35:25.039Z,98353.52
2018-02-21T05:37:52.668Z,98353.28
2018-02-21T05:40:20.121Z,98358.58
2018-02-21T05:42:47.575Z,98358.36
2018-02-21T05:45:15.521Z,98362.72
2018-02-21T05:47:42.949Z,98367.34
2018-02-21T05:50:10.401Z,98374.51
2018-02-21T05:52:38.218Z,98371.44
2018-02-21T05:55:05.686Z,98371.41
2018-02-21T05:57:33.144Z,98380.45
2018-02-21T06:00:00.857Z,98388.15
2018-02-21T06:02:28.653Z,98387.12
2018-02-21T06:04:56.124Z,98386.02
2018-02-21T06:07:23.842Z,98390.72
2018-02-21T06:09:51.313Z,98394.81
2018-02-21T06:12:18.769Z,98393.69
2018-02-21T06:14:46.414Z,98394.70
2018-02-21T06:17:13.865Z,98393.86
2018-02-21T06:19:41.377Z,98394.67
2018-02-21T06:22:09.531Z,98397.33
2018-02-21T06:24:36.991Z,98407.33
2018-02-21T06:27:04.446Z,98405.25
2018-02-21T06:29:32.550Z,98403.53
2018-02-21T06:32:00.011Z,98410.54
2018-02-21T06:34:27.488Z,98419.89
2018-02-21T06:36:55.527Z,98415.36
2018-02-21T06:39:22.977Z,98419.09
2018-02-21T06:41:50.453Z,98418.31
2018-02-21T06:44:18.542Z,98417.64
2018-02-21T06:46:46.208Z,98422.77
2018-02-21T06:49:13.665Z,98427.91
2018-02-21T06:51:41.372Z,98427.21
2018-02-21T06:54:08.839Z,98424.90
2018-02-21T06:56:36.299Z,98434.30
2018-02-21T06:59:04.172Z,98433.23
2018-02-21T07:01:31.640Z,98430.84
2018-02-21T07:03:59.480Z,98442.36
2018-02-21T07:06:27.186Z,98440.47
2018-02-21T07:08:54.646Z,98437.83
2018-02-21T07:11:22.107Z,98439.27
2018-02-21T07:13:49.872Z,98440.34
2018-02-21T07:16:17.332Z,98441.18
2018-02-21T07:18:44.821Z,98449.60
2018-02-21T07:21:12.560Z,98452.73
2018-02-21T07:23:40.008Z,98452.91
2018-02-21T07:26:07.493Z,98466.91
2018-02-21T07:28:35.549Z,98469.18
2018-02-21T07:31:03.012Z,98470.23
2018-02-21T07:33:30.482Z,98471.20
2018-02-21T07:35:58.234Z,98468.39
2018-02-21T07:38:25.692Z,98469.39
2018-02-21T07:40:53.167Z,98468.63
2018-02-21T07:43:20.898Z,98474.67
2018-02-21T07:45:48.357Z,98475.34
2018-02-21T07:48:15.805Z,98474.98
2018-02-21T07:50:43.609Z,98470.27
2018-02-21T07:53:11.060Z,98472.27
2018-02-21T07:55:38.509Z,98470.18
2018-02-21T07:58:06.297Z,98472.36
2018-02-21T08:00:33.756Z,98474.38
2018-02-21T08:03:01.308Z,98472.70
2018-02-21T08:05:29.606Z,98469.61
2018-02-21T08:07:57.063Z,98469.41
2018-02-21T08:10:24.523Z,98465.73
2018-02-21T08:12:52.277Z,98467.52
2018-02-21T08:15:19.783Z,98463.44
2018-02-21T08:17:47.225Z,98467.19
2018-02-21T08:20:14.977Z,98459.70
2018-02-21T08:22:42.462Z,98468.48
2018-02-21T08:25:09.938Z,98469.27
2018-02-21T08:27:37.670Z,98473.75
2018-02-21T08:30:05.126Z,98471.47
2018-02-21T08:32:32.576Z,98479.79
2018-02-21T08:35:00.348Z,98479.88
2018-02-21T08:37:27.799Z,98472.94
2018-02-21T08:39:55.249Z,98473.81
2018-02-21T08:42:23.348Z,98481.42
2018-02-21T08:44:50.843Z,98483.31
2018-02-21T08:47:18.335Z,98484.27
2018-02-21T08:49:45.949Z,98487.66
2018-02-21T08:52:13.409Z,98483.08
2018-02-21T08:54:41.330Z,98490.80
2018-02-21T08:57:09.070Z,98488.39
2018-02-21T08:59:36.541Z,98487.26
2018-02-21T09:02:03.993Z,98484.52
2018-02-21T09:04:31.712Z,98488.05
2018-02-21T09:06:59.165Z,98488.20
2018-02-21T09:09:26.630Z,98489.92
2018-02-21T09:11:54.401Z,98487.02
2018-02-21T09:14:21.901Z,98484.88
2018-02-21T09:16:49.365Z,98485.52
2018-02-21T09:19:17.042Z,98485.58
2018-02-21T09:21:44.493Z,98483.56
2018-02-21T09:24:11.949Z,98481.23
2018-02-21T09:26:39.770Z,98480.41
2018-02-21T09:29:07.293Z,98479.27
2018-02-21T09:31:34.717Z,98480.60
2018-02-21T09:34:02.462Z,98477.60
2018-02-21T09:36:29.925Z,98474.53
2018-02-21T09:38:57.393Z,98472.09
2018-02-21T09:41:25.222Z,98468.63
2018-02-21T09:43:52.686Z,98469.45
2018-02-21T09:46:20.146Z,98470.09
2018-02-21T09:48:47.821Z,98463.88
2018-02-21T09:51:15.280Z,98467.39
2018-02-21T09:53:42.733Z,98463.84
2018-02-21T09:56:10.820Z,98459.20
2018-02-21T09:58:38.277Z,98466.70
2018-02-21T10:01:05.730Z,98463.79
2018-02-21T10:03:33.514Z,98464.55
2018-02-21T10:06:00.960Z,98462.56
2018-02-21T10:08:29.411Z,98461.64
2018-02-21T10:10:57.133Z,98468.41
2018-02-21T10:13:24.587Z,98468.32
2018-02-21T10:15:52.048Z,98464.97
2018-02-21T10:18:19.796Z,98464.08
2018-02-21T10:20:47.296Z,98456.66
2018-02-21T10:23:14.773Z,98459.50
2018-02-21T10:25:42.793Z,98452.23
2018-02-21T10:28:10.251Z,98456.23
2018-02-21T10:30:37.711Z,98459.63
2018-02-21T10:33:05.489Z,98454.98
2018-02-21T10:35:32.948Z,98463.25
2018-02-21T10:38:00.412Z,98450.98
2018-02-21T10:40:28.494Z,98461.64
2018-02-21T10:42:55.944Z,98454.34
2018-02-21T10:45:23.444Z,98452.80
2018-02-21T10:47:51.174Z,98452.70
2018-02-21T10:50:18.628Z,98450.25
2018-02-21T10:52:46.082Z,98448.33
2018-02-21T10:55:14.153Z,98438.17
2018-02-21T10:57:41.601Z,98450.12
2018-02-21T11:00:09.066Z,98450.80
2018-02-21T11:02:36.846Z,98449.32
2018-02-21T11:05:04.301Z,98442.19
2018-02-21T11:07:31.751Z,98446.32
2018-02-21T11:10:02.653Z,98443.26
2018-02-21T11:12:30.196Z,98443.61
2018-02-21T11:14:57.660Z,98442.21
2018-02-21T11:17:25.604Z,98444.32
2018-02-21T11:19:53.072Z,98431.14
2018-02-21T11:22:20.529Z,98439.81
2018-02-21T11:24:48.290Z,98431.27
2018-02-21T11:27:15.761Z,98427.47
2018-02-21T11:29:43.239Z,98432.43
2018-02-21T11:32:10.925Z,98419.24
2018-02-21T11:34:38.382Z,98425.16
2018-02-21T11:37:05.840Z,98422.83
2018-02-21T11:39:33.656Z,98424.89
2018-02-21T11:42:01.113Z,98425.52
2018-02-21T11:44:28.571Z,98425.06
2018-02-21T11:46:56.348Z,98414.05
2018-02-21T11:49:23.810Z,98419.70
2018-02-21T11:51:51.257Z,98412.52
2018-02-21T11:54:19.028Z,98412.34
2018-02-21T11:56:46.509Z,98411.66
2018-02-21T11:59:13.964Z,98410.14
2018-02-21T12:01:42.075Z,98407.20
2018-02-21T12:04:09.538Z,98403.19
2018-02-21T12:06:36.995Z,98408.17
2018-02-21T12:09:04.714Z,98398.03
2018-02-21T12:11:32.541Z,98401.76
2018-02-21T12:13:59.995Z,98399.05
2018-02-21T12:16:28.020Z,98400.00
2018-02-21T12:18:55.480Z,98393.13
2018-02-21T12:21:23.008Z,98392.48
2018-02-21T12:23:51.009Z,98389.91
2018-02-21T12:26:18.472Z,98392.52
2018-02-21T12:28:45.938Z,98385.59
2018-02-21T12:31:13.701Z,98381.91
2018-02-21T12:33:41.169Z,98388.39
2018-02-21T12:36:08.623Z,98385.60
2018-02-21T12:38:36.393Z,98386.90
2018-02-21T12:41:09.419Z,98385.55
2018-02-21T12:43:36.879Z,98386.89
2018-02-21T12:46:04.618Z,98384.75
2018-02-21T12:48:32.074Z,98382.73
2018-02-21T12:50:59.530Z,98380.17
2018-02-21T12:53:28.208Z,98389.75
2018-02-21T12:55:55.664Z,98380.36
2018-02-21T12:58:23.185Z,98380.50
2018-02-21T13:00:51.200Z,98384.47
2018-02-21T13:03:19.146Z,98374.91
2018-02-21T13:05:46.590Z,98374.39
2018-02-21T13:08:14.477Z,98375.82
2018-02-21T13:10:41.928Z,98373.52
2018-02-21T13:13:09.808Z,98373.44
2018-02-21T13:15:37.661Z,98366.44
2018-02-21T13:18:05.115Z,98374.56
2018-02-21T13:20:32.578Z,98365.72
2018-02-21T13:23:00.490Z,98368.35
2018-02-21T13:25:27.942Z,98359.72
2018-02-21T13:27:55.416Z,98369.75
2018-02-21T13:30:23.198Z,98365.23
2018-02-21T13:32:50.649Z,98364.91
2018-02-21T13:35:18.105Z,98369.44
2018-02-21T13:37:46.513Z,98372.48
2018-02-21T13:40:13.957Z,98372.16
2018-02-21T13:42:41.417Z,98373.32
2018-02-21T13:45:09.222Z,98370.56
2018-02-21T13:47:36.681Z,98368.59
2018-02-21T13:50:04.141Z,98375.00
2018-02-21T13:52:31.814Z,98368.84
2018-02-21T13:54:59.270Z,98367.50
2018-02-21T13:57:26.722Z,98374.34
2018-02-21T13:59:55.772Z,98368.53
2018-02-21T14:02:23.252Z,98373.11
2018-02-21T14:04:50.717Z,98369.50
2018-02-21T14:07:18.460Z,98376.03
2018-02-21T14:09:45.924Z,98374.31
2018-02-21T14:12:13.422Z,98375.38
2018-02-21T14:14:41.741Z,98371.98
2018-02-21T14:17:09.198Z,98388.20
2018-02-21T14:19:36.652Z,98384.97
2018-02-21T14:22:04.744Z,98385.62
2018-02-21T14:24:32.196Z,98384.75
2018-02-21T14:26:59.645Z,98384.06
2018-02-21T14:29:27.437Z,98384.28
2018-02-21T14:31:54.895Z,98376.84
2018-02-21T14:34:22.359Z,98391.35
2018-02-21T14:36:50.124Z,98388.95
2018-02-21T14:39:17.586Z,98384.19
2018-02-21T14:41:45.092Z,98387.10
2018-02-21T14:44:13.117Z,98386.00
2018-02-21T14:46:40.586Z,98395.86
2018-02-21T14:49:08.041Z,98392.28
2018-02-21T14:51:35.797Z,98397.55
2018-02-21T14:54:03.257Z,98391.81
2018-02-21T14:56:30.709Z,98388.11
2018-02-21T14:58:58.810Z,98398.67
2018-02-21T15:01:26.273Z,98397.00
2018-02-21T15:03:53.736Z,98394.23
2018-02-21T15:06:21.497Z,98399.23
2018-02-21T15:08:48.945Z,98409.83
2018-02-21T15:11:16.405Z,98397.81
2018-02-21T15:13:44.040Z,98404.20
2018-02-21T15:16:18.136Z,98396.16
2018-02-21T15:18:48.929Z,98400.61
2018-02-21T15:21:16.401Z,98405.66
2018-02-21T15:23:43.852Z,98402.45
2018-02-21T15:26:11.927Z,98402.56
2018-02-21T15:28:39.423Z,98402.47
2018-02-21T15:31:06.916Z,98402.63
2018-02-21T15:33:34.596Z,98401.08
2018-02-21T15:36:02.046Z,98407.17
2018-02-21T15:38:29.536Z,98400.61
2018-02-21T15:40:57.338Z,98407.78
2018-02-21T15:43:24.811Z,98408.03
2018-02-21T15:45:52.297Z,98413.06
2018-02-21T15:48:20.026Z,98414.88
2018-02-21T15:50:47.504Z,98419.59
2018-02-21T15:53:14.962Z,98415.21
2018-02-21T15:55:42.670Z,98409.08
2018-02-21T15:58:10.167Z,98417.42
2018-02-21T16:00:37.617Z,98417.11
2018-02-21T16:03:05.368Z,98415.96
2018-02-21T16:05:32.818Z,98412.91
2018-02-21T16:08:00.278Z,98413.11
2018-02-21T16:10:28.041Z,98418.25
2018-02-21T16:12:55.504Z,98413.69
2018-02-21T16:15:23.005Z,98411.95
2018-02-21T16:17:52.826Z,98420.94
2018-02-21T16:20:20.282Z,98416.16
2018-02-21T16:22:47.741Z,98417.83
2018-02-21T16:25:15.560Z,98414.02
2018-02-21T16:27:43.026Z,98428.16
2018-02-21T16:30:10.481Z,98428.27
2018-02-21T16:32:38.257Z,98426.91
2018-02-21T16:35:05.736Z,98434.75
2018-02-21T16:37:33.199Z,98433.38
2018-02-21T16:40:00.974Z,98433.60
2018-02-21T16:42:28.439Z,98436.33
2018-02-21T16:44:55.910Z,98439.48
2018-02-21T16:47:23.630Z,98440.70
2018-02-21T16:49:51.081Z,98439.81
2018-02-21T16:52:18.529Z,98445.78
2018-02-21T16:54:46.303Z,98446.16
2018-02-21T16:57:13.761Z,98451.58
2018-02-21T16:59:41.220Z,98446.52
2018-02-21T17:02:08.996Z,98448.86
2018-02-21T17:04:36.461Z,98451.56
2018-02-21T17:07:03.921Z,98453.34
2018-02-21T17:09:31.684Z,98451.61
2018-02-21T17:11:59.159Z,98458.09
2018-02-21T17:14:26.633Z,98459.74
2018-02-21T17:16:54.371Z,98463.71
2018-02-21T17:19:22.524Z,98466.09
2018-02-21T17:21:49.982Z,98464.53
2018-02-21T17:24:17.665Z,98464.13
2018-02-21T17:26:45.120Z,98465.45
2018-02-21T17:29:12.599Z,98470.36
2018-02-21T17:31:40.653Z,98469.32
2018-02-21T17:34:08.101Z,98460.36
2018-02-21T17:36:35.620Z,98472.59
2018-02-21T17:39:03.667Z,98469.78
2018-02-21T17:41:32.917Z,98474.77
2018-02-21T17:44:00.366Z,98477.63
2018-02-21T17:46:28.196Z,98485.06
2018-02-21T17:48:55.657Z,98483.50
2018-02-21T17:51:23.112Z,98480.98
2018-02-21T17:53:50.902Z,98484.87
2018-02-21T17:56:18.357Z,98483.50
2018-02-21T17:58:45.817Z,98478.73
2018-02-21T18:01:13.559Z,98484.08
2018-02-21T18:03:41.070Z,98490.19
2018-02-21T18:06:08.540Z,98483.94
2018-02-21T18:08:36.468Z,98489.50
2018-02-21T18:11:03.925Z,98492.66
2018-02-21T18:13:31.397Z,98493.86
2018-02-21T18:15:59.261Z,98491.36
2018-02-21T18:18:26.727Z,98492.16
2018-02-21T18:20:54.692Z,98497.19
2018-02-21T18:23:22.353Z,98495.62
2018-02-21T18:25:49.820Z,98492.47
2018-02-21T18:28:17.345Z,98496.20
2018-02-21T18:30:45.221Z,98502.41
2018-02-21T18:33:12.680Z,98505.46
2018-02-21T18:35:40.134Z,98509.13
2018-02-21T18:38:08.529Z,98508.84
2018-02-21T18:40:36.073Z,98505.23
2018-02-21T18:43:03.617Z,98495.98
2018-02-21T18:45:31.528Z,98512.78
2018-02-21T18:47:58.984Z,98509.33
2018-02-21T18:50:26.429Z,98511.62
2018-02-21T18:52:54.184Z,98509.77
2018-02-21T18:55:21.689Z,98515.69
2018-02-21T18:57:49.165Z,98510.20
2018-02-21T19:00:16.900Z,98511.88
2018-02-21T19:02:44.355Z,98519.62
2018-02-21T19:05:11.834Z,98521.72
2018-02-21T19:07:39.656Z,98521.45
2018-02-21T19:10:07.114Z,98521.72
2018-02-21T19:12:35.208Z,98521.63
2018-02-21T19:15:03.532Z,98520.16
2018-02-21T19:17:30.986Z,98522.20
2018-02-21T19:19:58.444Z,98522.78
2018-02-21T19:22:27.725Z,98523.84
2018-02-21T19:24:55.173Z,98524.20
2018-02-21T19:27:22.684Z,98525.49
2018-02-21T19:29:50.378Z,98525.53
2018-02-21T19:32:17.837Z,98523.31
2018-02-21T19:34:45.291Z,98522.13
2018-02-21T19:37:13.158Z,98521.19
2018-02-21T19:39:40.570Z,98521.52
2018-02-21T19:42:08.093Z,98514.95
2018-02-21T19:44:36.090Z,98518.61
2018-02-21T19:47:04.549Z,98518.34
2018-02-21T19:49:32.012Z,98523.66
2018-02-21T19:52:00.021Z,98519.39
2018-02-21T19:54:27.485Z,98522.05
2018-02-21T19:56:54.958Z,98523.59
2018-02-21T19:59:23.029Z,98527.05
2018-02-21T20:01:50.485Z,98524.16
2018-02-21T20:04:17.939Z,98520.62
2018-02-21T20:06:45.697Z,98519.64
2018-02-21T20:09:13.176Z,98521.98
2018-02-21T20:11:40.634Z,98515.94
2018-02-21T20:14:08.379Z,98519.03
2018-02-21T20:16:35.841Z,98519.66
2018-02-21T20:19:03.301Z,98525.03
2018-02-21T20:21:31.076Z,98518.89
2018-02-21T20:23:58.866Z,98522.28
2018-02-21T20:26:26.313Z,98521.11
2018-02-21T20:28:54.075Z,98514.77
2018-02-21T20:31:21.535Z,98526.95
2018-02-21T20:33:49.001Z,98528.86
2018-02-21T20:36:17.048Z,98522.89
2018-02-21T20:38:44.508Z,98522.87
2018-02-21T20:41:11.963Z,98524.82
2018-02-21T20:43:39.737Z,98522.60
2018-02-21T20:46:07.201Z,98526.44
2018-02-21T20:48:34.664Z,98522.86
2018-02-21T20:51:02.433Z,98525.53
2018-02-21T20:53:29.920Z,98525.12
2018-02-21T20:55:57.373Z,98523.48
2018-02-21T20:58:25.125Z,98523.20
2018-02-21T21:00:52.610Z,98522.28
2018-02-21T21:03:20.093Z,98524.75
2018-02-21T21:05:48.108Z,98525.66
2018-02-21T21:08:15.570Z,98523.27
2018-02-21T21:10:43.060Z,98516.80
2018-02-21T21:13:11.099Z,98519.53
2018-02-21T21:15:38.556Z,98524.28
2018-02-21T21:18:06.026Z,98528.43
2018-02-21T21:20:34.094Z,98524.23
2018-02-21T21:23:01.546Z,98525.04
2018-02-21T21:25:29.722Z,98523.30
2018-02-21T21:27:57.676Z,98522.03
2018-02-21T21:30:25.126Z,98516.48
2018-02-21T21:32:52.580Z,98513.20
2018-02-21T21:35:20.745Z,98509.80
2018-02-21T21:37:48.203Z,98506.70
2018-02-21T21:40:15.658Z,98502.09
2018-02-21T21:42:43.382Z,98500.89
2018-02-21T21:45:10.834Z,98503.38
2018-02-21T21:47:38.289Z,98500.64
2018-02-21T21:50:06.078Z,98501.30
2018-02-21T21:52:33.564Z,98499.06
2018-02-21T21:55:01.029Z,98497.10
2018-02-21T21:57:28.758Z,98501.30
2018-02-21T21:59:56.200Z,98499.06
2018-02-21T22:02:23.648Z,98498.02
2018-02-21T22:04:51.450Z,98503.77
2018-02-21T22:07:18.901Z,98497.96
2018-02-21T22:09:46.356Z,98504.09
2018-02-21T22:12:14.134Z,98498.24
2018-02-21T22:14:41.588Z,98502.45
2018-02-21T22:17:09.054Z,98500.67
2018-02-21T22:19:36.817Z,98501.05
2018-02-21T22:22:04.264Z,98501.33
2018-02-21T22:24:31.716Z,98516.05
2018-02-21T22:26:59.812Z,98505.42
2018-02-21T22:29:27.285Z,98503.98
2018-02-21T22:31:54.751Z,98509.09
2018-02-21T22:34:22.493Z,98509.97
2018-02-21T22:36:49.961Z,98518.45
2018-02-21T22:39:17.472Z,98511.97
2018-02-21T22:41:45.507Z,98513.08
2018-02-21T22:44:12.956Z,98509.41
2018-02-21T22:46:40.417Z,98505.89
2018-02-21T22:49:08.178Z,98520.91
2018-02-21T22:51:35.637Z,98505.28
2018-02-21T22:54:03.120Z,98512.91
2018-02-21T22:56:30.692Z,98519.67
2018-02-21T22:58:58.156Z,98511.95
2018-02-21T23:01:25.616Z,98510.98
2018-02-21T23:03:53.239Z,98509.88
2018-02-21T23:06:20.685Z,98511.97
2018-02-21T23:08:48.138Z,98513.28
2018-02-21T23:11:15.933Z,98514.77
2018-02-21T23:13:43.389Z,98521.41
2018-02-21T23:16:10.842Z,98521.66
2018-02-21T23:18:38.618Z,98524.25
2018-02-21T23:21:06.074Z,98519.89
2018-02-21T23:23:33.587Z,98522.60
2018-02-21T23:26:01.338Z,98514.92
2018-02-21T23:28:28.851Z,98516.59
2018-02-21T23:30:56.306Z,98513.31
2018-02-21T23:33:24.294Z,98514.30
2018-02-21T23:35:51.746Z,98514.15
2018-02-21T23:38:19.204Z,98507.78
2018-02-21T23:40:47.296Z,98501.30
2018-02-21T23:43:14.782Z,98503.17
2018-02-21T23:45:42.223Z,98504.56
2018-02-21T23:48:09.997Z,98500.15
2018-02-21T23:50:37.458Z,98495.17
2018-02-21T23:53:04.910Z,98497.28
2018-02-21T23:55:32.714Z,98499.05
2018-02-21T23:58:00.176Z,98506.08
